Time;durP1;ratioP1;P1;durP2;ratioP2;P2;SDS_P1;SDS_P2;PMS_P1;PMS_P2;Temp;Humidity;BMP_temperature;BMP_pressure;BME280_temperature;BME280_humidity;BME280_pressure;Samples;Min_cycle;Max_cycle;Signal;HPM_P1;HPM_P2
2023/04/19 00:01:57;;;;;;;8.00;4.38;;;;;;;;;;5077105;28;20513;-83
2023/04/19 00:04:24;;;;;;;5.70;3.88;;;;;;;;;;5077411;28;20040;-83
2023/04/19 00:06:50;;;;;;;5.00;3.60;;;;;;;;;;5078890;28;20490;-82
2023/04/19 00:09:16;;;;;;;6.00;3.63;;;;;;;;;;5088037;28;20037;-83
2023/04/19 00:11:41;;;;;;;4.80;3.60;;;;;;;;;;5073544;28;20047;-81
2023/04/19 00:14:07;;;;;;;4.82;3.33;;;;;;;;;;5093688;28;20077;-82
2023/04/19 00:16:32;;;;;;;6.75;4.00;;;;;;;;;;5071782;28;20842;-82
2023/04/19 00:18:58;;;;;;;6.55;4.07;;;;;;;;;;5070902;28;20028;-81
2023/04/19 00:21:23;;;;;;;5.05;3.90;;;;;;;;;;5070885;28;20699;-82
2023/04/19 00:23:49;;;;;;;6.13;4.10;;;;;;;;;;5072366;28;20082;-83
2023/04/19 00:26:14;;;;;;;5.25;3.70;;;;;;;;;;5073972;28;20039;-82
2023/04/19 00:28:42;;;;;;;6.22;4.13;;;;;;;;;;5076700;28;20115;-83
2023/04/19 00:31:08;;;;;;;6.57;3.97;;;;;;;;;;5077769;28;20075;-82
2023/04/19 00:33:33;;;;;;;6.55;4.10;;;;;;;;;;5079498;28;20048;-82
2023/04/19 00:35:59;;;;;;;6.70;4.45;;;;;;;;;;5075550;28;20033;-82
2023/04/19 00:38:25;;;;;;;6.03;4.40;;;;;;;;;;5063689;28;20029;-82
2023/04/19 00:40:50;;;;;;;5.20;3.80;;;;;;;;;;5061987;28;20251;-83
2023/04/19 00:43:18;;;;;;;7.35;4.78;;;;;;;;;;5065091;28;20028;-82
2023/04/19 00:45:43;;;;;;;5.75;4.50;;;;;;;;;;5073431;28;20036;-83
2023/04/19 00:48:09;;;;;;;5.93;4.07;;;;;;;;;;5075233;28;20100;-82
2023/04/19 00:50:35;;;;;;;7.50;4.47;;;;;;;;;;5072437;28;20206;-83
2023/04/19 00:53:01;;;;;;;7.30;4.82;;;;;;;;;;5076321;28;20028;-82
2023/04/19 00:55:26;;;;;;;8.93;4.70;;;;;;;;;;5074716;28;20040;-82
2023/04/19 00:57:52;;;;;;;11.80;4.88;;;;;;;;;;5072124;28;20037;-82
2023/04/19 01:00:18;;;;;;;7.95;5.05;;;;;;;;;;5074130;28;20040;-82
2023/04/19 01:02:44;;;;;;;7.50;5.03;;;;;;;;;;5072334;28;20036;-83
2023/04/19 01:05:10;;;;;;;7.55;5.15;;;;;;;;;;5069924;28;20028;-82
2023/04/19 01:07:38;;;;;;;6.88;4.80;;;;;;;;;;5068299;28;20094;-83
2023/04/19 01:10:04;;;;;;;7.97;4.75;;;;;;;;;;5062396;28;20036;-83
2023/04/19 01:12:30;;;;;;;5.78;4.53;;;;;;;;;;5074457;28;20059;-82
2023/04/19 01:14:56;;;;;;;7.35;5.50;;;;;;;;;;5065807;28;20483;-82
2023/04/19 01:17:21;;;;;;;7.20;5.30;;;;;;;;;;5071423;28;20036;-82
2023/04/19 01:19:47;;;;;;;8.93;5.38;;;;;;;;;;5074991;28;20063;-82
2023/04/19 01:22:20;;;;;;;8.65;5.07;;;;;;;;;;5069396;28;20383;-83
2023/04/19 01:24:45;;;;;;;8.65;5.93;;;;;;;;;;5071282;28;20077;-82
2023/04/19 01:27:12;;;;;;;7.93;5.53;;;;;;;;;;5070844;28;20417;-82
2023/04/19 01:29:38;;;;;;;8.75;5.85;;;;;;;;;;5068339;28;20036;-83
2023/04/19 01:32:04;;;;;;;8.30;5.90;;;;;;;;;;5059493;28;20124;-83
2023/04/19 01:34:29;;;;;;;7.78;5.47;;;;;;;;;;5075024;28;20094;-82
2023/04/19 01:36:55;;;;;;;8.00;5.88;;;;;;;;;;5075556;28;20040;-82
2023/04/19 01:39:21;;;;;;;9.75;5.40;;;;;;;;;;5046261;28;20043;-83
2023/04/19 01:41:46;;;;;;;8.35;5.35;;;;;;;;;;5073055;28;20494;-82
2023/04/19 01:44:11;;;;;;;7.22;5.55;;;;;;;;;;5050409;28;20074;-82
2023/04/19 01:46:37;;;;;;;8.35;4.90;;;;;;;;;;5070220;28;20025;-82
2023/04/19 01:49:03;;;;;;;8.02;5.45;;;;;;;;;;5074059;28;20040;-82
2023/04/19 01:51:28;;;;;;;8.93;6.05;;;;;;;;;;5075293;28;20032;-82
2023/04/19 01:53:54;;;;;;;8.73;5.15;;;;;;;;;;5075575;28;20374;-82
2023/04/19 01:56:21;;;;;;;9.10;5.90;;;;;;;;;;5072957;28;20071;-82
2023/04/19 01:58:47;;;;;;;8.68;5.50;;;;;;;;;;5066193;28;20413;-82
2023/04/19 02:01:13;;;;;;;9.20;6.13;;;;;;;;;;5062189;28;20498;-82
2023/04/19 02:03:39;;;;;;;9.40;6.38;;;;;;;;;;5075366;28;20040;-82
2023/04/19 02:06:05;;;;;;;8.90;5.43;;;;;;;;;;5073993;28;20036;-81
2023/04/19 02:08:30;;;;;;;10.70;6.28;;;;;;;;;;5073085;28;20036;-82
2023/04/19 02:10:56;;;;;;;7.65;5.43;;;;;;;;;;5058846;28;20414;-82
2023/04/19 02:13:21;;;;;;;10.00;6.43;;;;;;;;;;5067796;28;20047;-82
2023/04/19 02:15:47;;;;;;;8.52;5.68;;;;;;;;;;5052308;28;20037;-81
2023/04/19 02:18:13;;;;;;;7.32;5.32;;;;;;;;;;5072597;28;20052;-82
2023/04/19 02:20:39;;;;;;;11.57;6.00;;;;;;;;;;5056841;28;20033;-82
2023/04/19 02:23:04;;;;;;;9.27;6.15;;;;;;;;;;5074047;28;20124;-82
2023/04/19 02:25:30;;;;;;;9.98;6.13;;;;;;;;;;5070768;28;20040;-81
2023/04/19 02:27:55;;;;;;;10.55;5.95;;;;;;;;;;5069403;28;20031;-81
2023/04/19 02:30:21;;;;;;;9.38;6.15;;;;;;;;;;5072672;28;20388;-82
2023/04/19 02:32:48;;;;;;;7.85;5.53;;;;;;;;;;5072002;28;20055;-82
2023/04/19 02:35:13;;;;;;;8.35;6.15;;;;;;;;;;5068293;28;20100;-82
2023/04/19 02:37:38;;;;;;;11.15;7.18;;;;;;;;;;5065962;28;20067;-81
2023/04/19 02:40:05;;;;;;;10.50;6.60;;;;;;;;;;5070437;28;20518;-81
2023/04/19 02:42:30;;;;;;;8.45;5.93;;;;;;;;;;5071789;28;20029;-82
2023/04/19 02:44:56;;;;;;;10.40;6.80;;;;;;;;;;5073326;28;20608;-82
2023/04/19 02:47:23;;;;;;;10.20;5.63;;;;;;;;;;5074309;28;20045;-83
2023/04/19 02:49:48;;;;;;;9.90;6.03;;;;;;;;;;5067666;28;20099;-82
2023/04/19 02:52:14;;;;;;;10.10;6.35;;;;;;;;;;5058053;28;20037;-82
2023/04/19 02:54:40;;;;;;;11.57;6.50;;;;;;;;;;5065088;28;20032;-81
2023/04/19 02:57:06;;;;;;;11.18;6.70;;;;;;;;;;5049221;28;20032;-81
2023/04/19 02:59:32;;;;;;;10.88;7.07;;;;;;;;;;5072190;28;20065;-82
2023/04/19 03:02:00;;;;;;;10.32;6.68;;;;;;;;;;5068741;28;20123;-82
2023/04/19 03:04:27;;;;;;;10.45;7.07;;;;;;;;;;5065723;28;20068;-83
2023/04/19 03:06:53;;;;;;;10.57;6.70;;;;;;;;;;5067524;28;20024;-82
2023/04/19 03:09:19;;;;;;;10.88;7.40;;;;;;;;;;5072295;28;20059;-81
2023/04/19 03:11:45;;;;;;;12.23;6.97;;;;;;;;;;5073899;28;20479;-81
2023/04/19 03:14:11;;;;;;;13.00;7.40;;;;;;;;;;5074534;28;20490;-81
2023/04/19 03:16:37;;;;;;;14.85;7.05;;;;;;;;;;5069387;28;20047;-81
2023/04/19 03:19:03;;;;;;;10.25;6.75;;;;;;;;;;5064169;28;20037;-81
2023/04/19 03:21:35;;;;;;;10.68;6.80;;;;;;;;;;5073425;28;20032;-82
2023/04/19 03:24:00;;;;;;;11.05;6.95;;;;;;;;;;5062303;28;20106;-82
2023/04/19 03:26:26;;;;;;;11.57;7.22;;;;;;;;;;5061651;28;20052;-82
2023/04/19 03:28:54;;;;;;;8.00;5.63;;;;;;;;;;5054898;28;20091;-82
2023/04/19 03:31:28;;;;;;;9.75;6.03;;;;;;;;;;5071584;28;20048;-82
2023/04/19 03:33:54;;;;;;;8.98;6.22;;;;;;;;;;5042493;28;20037;-81
2023/04/19 03:36:25;;;;;;;11.18;6.90;;;;;;;;;;5073986;28;20028;-81
2023/04/19 03:38:51;;;;;;;12.25;7.57;;;;;;;;;;5073564;28;20039;-82
2023/04/19 03:41:25;;;;;;;10.48;6.88;;;;;;;;;;5070013;28;20036;-82
2023/04/19 03:44:02;;;;;;;11.43;6.85;;;;;;;;;;5066180;28;20036;-82
2023/04/19 03:46:30;;;;;;;12.43;6.93;;;;;;;;;;5070129;28;20025;-83
2023/04/19 03:48:57;;;;;;;10.07;6.97;;;;;;;;;;5068833;28;20048;-81
2023/04/19 03:51:23;;;;;;;11.75;7.22;;;;;;;;;;5063828;28;20402;-81
2023/04/19 03:53:49;;;;;;;11.73;7.57;;;;;;;;;;5062372;28;20036;-81
2023/04/19 03:56:17;;;;;;;10.52;7.03;;;;;;;;;;5071477;28;20111;-81
2023/04/19 03:58:45;;;;;;;14.70;7.53;;;;;;;;;;5066787;28;20060;-81
2023/04/19 04:01:21;;;;;;;11.20;7.00;;;;;;;;;;5071431;28;20132;-82
2023/04/19 04:03:47;;;;;;;14.65;7.90;;;;;;;;;;5070960;28;20577;-81
2023/04/19 04:06:13;;;;;;;13.10;7.68;;;;;;;;;;5068138;28;20036;-81
2023/04/19 04:08:39;;;;;;;11.90;7.68;;;;;;;;;;5072035;28;20563;-82
2023/04/19 04:11:04;;;;;;;10.73;7.05;;;;;;;;;;5063159;28;20032;-81
2023/04/19 04:13:30;;;;;;;12.25;7.43;;;;;;;;;;5060699;28;20112;-82
2023/04/19 04:16:11;;;;;;;12.02;7.95;;;;;;;;;;5076302;28;20148;-82
2023/04/19 04:18:37;;;;;;;12.95;8.35;;;;;;;;;;5074042;28;20075;-80
2023/04/19 04:21:06;;;;;;;12.10;7.72;;;;;;;;;;5076678;28;20039;-81
2023/04/19 04:23:34;;;;;;;13.25;8.80;;;;;;;;;;5072919;28;20032;-81
2023/04/19 04:26:04;;;;;;;14.77;8.90;;;;;;;;;;5075143;28;20501;-81
2023/04/19 04:28:42;;;;;;;13.50;8.32;;;;;;;;;;5056006;28;20044;-82
2023/04/19 04:31:08;;;;;;;14.02;8.00;;;;;;;;;;5075204;28;20040;-80
2023/04/19 04:33:34;;;;;;;12.90;8.10;;;;;;;;;;5071208;28;20032;-82
2023/04/19 04:36:02;;;;;;;12.23;7.75;;;;;;;;;;5076103;28;20038;-80
2023/04/19 04:38:32;;;;;;;13.60;8.75;;;;;;;;;;5070517;28;20051;-81
2023/04/19 04:40:58;;;;;;;15.25;8.77;;;;;;;;;;5066155;28;20033;-81
2023/04/19 04:43:27;;;;;;;15.80;8.43;;;;;;;;;;5063036;28;20123;-82
2023/04/19 04:45:55;;;;;;;14.60;9.20;;;;;;;;;;5062922;28;20029;-81
2023/04/19 04:48:21;;;;;;;14.52;8.63;;;;;;;;;;5075002;28;20525;-81
2023/04/19 04:50:46;;;;;;;13.63;8.32;;;;;;;;;;5056199;28;20037;-81
2023/04/19 04:53:12;;;;;;;11.93;7.60;;;;;;;;;;5071554;28;20032;-81
2023/04/19 04:55:40;;;;;;;13.95;8.55;;;;;;;;;;5069703;28;20063;-81
2023/04/19 04:58:06;;;;;;;14.07;8.52;;;;;;;;;;5071713;28;20414;-82
2023/04/19 05:01:00;;;;;;;12.30;7.78;;;;;;;;;;5064599;28;20032;-81
2023/04/19 05:03:27;;;;;;;11.60;7.45;;;;;;;;;;5067028;28;20494;-82
2023/04/19 05:05:58;;;;;;;12.50;7.50;;;;;;;;;;5064159;28;20032;-82
2023/04/19 05:08:25;;;;;;;16.13;8.15;;;;;;;;;;5071407;28;20119;-82
2023/04/19 05:10:54;;;;;;;12.88;7.80;;;;;;;;;;5068401;28;20044;-81
2023/04/19 05:13:23;;;;;;;12.40;7.72;;;;;;;;;;5057841;28;20033;-80
2023/04/19 05:15:49;;;;;;;12.93;7.63;;;;;;;;;;5066564;28;20025;-82
2023/04/19 05:18:14;;;;;;;13.68;8.10;;;;;;;;;;5067382;28;20070;-82
2023/04/19 05:20:41;;;;;;;14.05;8.30;;;;;;;;;;5074560;28;20036;-82
2023/04/19 05:23:15;;;;;;;12.10;7.55;;;;;;;;;;5073131;28;20040;-82
2023/04/19 05:25:42;;;;;;;13.05;8.27;;;;;;;;;;5070553;28;20699;-82
2023/04/19 05:28:08;;;;;;;14.73;8.43;;;;;;;;;;5075369;28;20055;-83
2023/04/19 05:30:43;;;;;;;13.88;8.25;;;;;;;;;;5072962;28;20040;-81
2023/04/19 05:33:09;;;;;;;15.73;9.10;;;;;;;;;;5078031;28;20037;-81
2023/04/19 05:35:34;;;;;;;12.73;8.07;;;;;;;;;;5060559;28;20406;-82
2023/04/19 05:38:00;;;;;;;15.07;8.52;;;;;;;;;;5074357;28;20432;-83
2023/04/19 05:40:27;;;;;;;19.08;9.50;;;;;;;;;;5071098;28;20060;-82
2023/04/19 05:42:52;;;;;;;15.85;9.63;;;;;;;;;;5069604;28;20785;-82
2023/04/19 05:45:18;;;;;;;14.60;8.38;;;;;;;;;;5067022;28;20534;-81
2023/04/19 05:47:43;;;;;;;16.40;10.20;;;;;;;;;;5071012;28;20097;-82
2023/04/19 05:50:27;;;;;;;18.67;10.68;;;;;;;;;;5073236;28;20048;-81
2023/04/19 05:53:13;;;;;;;18.35;10.63;;;;;;;;;;5073301;28;20132;-81
2023/04/19 05:55:39;;;;;;;17.40;10.23;;;;;;;;;;5054294;28;20064;-81
2023/04/19 05:58:05;;;;;;;20.13;11.05;;;;;;;;;;5071379;28;20132;-82
2023/04/19 06:00:31;;;;;;;20.48;12.23;;;;;;;;;;5067837;28;20123;-80
2023/04/19 06:03:06;;;;;;;21.02;11.77;;;;;;;;;;5068386;28;20669;-81
2023/04/19 06:05:32;;;;;;;22.08;12.10;;;;;;;;;;5043852;28;20055;-80
2023/04/19 06:07:58;;;;;;;27.90;13.75;;;;;;;;;;5062149;28;20037;-80
2023/04/19 06:10:24;;;;;;;27.88;13.98;;;;;;;;;;5072398;28;20036;-81
2023/04/19 06:12:50;;;;;;;28.83;14.95;;;;;;;;;;5072302;28;20033;-81
2023/04/19 06:15:16;;;;;;;28.23;15.63;;;;;;;;;;5070529;28;20537;-81
2023/04/19 06:17:43;;;;;;;29.90;15.48;;;;;;;;;;5050828;28;20464;-80
2023/04/19 06:20:09;;;;;;;33.03;16.17;;;;;;;;;;5070480;28;20037;-80
2023/04/19 06:22:40;;;;;;;31.20;15.32;;;;;;;;;;5073808;28;20041;-80
2023/04/19 06:25:05;;;;;;;26.13;14.70;;;;;;;;;;5057743;28;20108;-81
2023/04/19 06:27:31;;;;;;;24.50;14.15;;;;;;;;;;5059517;28;20474;-81
2023/04/19 06:29:59;;;;;;;26.73;14.18;;;;;;;;;;5071598;28;20128;-82
2023/04/19 06:32:25;;;;;;;24.77;14.45;;;;;;;;;;5067485;28;20059;-81
2023/04/19 06:34:51;;;;;;;24.65;14.63;;;;;;;;;;5071862;28;20028;-81
2023/04/19 06:37:16;;;;;;;22.88;13.63;;;;;;;;;;5065457;28;20033;-81
2023/04/19 06:39:41;;;;;;;24.45;14.48;;;;;;;;;;5066534;28;20036;-79
2023/04/19 06:42:07;;;;;;;23.67;14.35;;;;;;;;;;5068373;28;20554;-81
2023/04/19 06:44:32;;;;;;;23.90;13.25;;;;;;;;;;5071569;28;20033;-81
2023/04/19 06:46:58;;;;;;;21.08;12.65;;;;;;;;;;5054686;28;20049;-80
2023/04/19 06:49:23;;;;;;;25.48;13.82;;;;;;;;;;5070042;28;20033;-80
2023/04/19 06:51:49;;;;;;;25.70;14.82;;;;;;;;;;5063979;28;20574;-80
2023/04/19 06:54:14;;;;;;;22.17;12.95;;;;;;;;;;5044917;28;20036;-81
2023/04/19 06:56:45;;;;;;;22.40;12.23;;;;;;;;;;5058543;28;20086;-80
2023/04/19 06:59:16;;;;;;;20.90;12.80;;;;;;;;;;5064452;28;20037;-81
2023/04/19 07:01:43;;;;;;;21.92;13.48;;;;;;;;;;5046691;28;20058;-80
2023/04/19 07:04:09;;;;;;;23.30;13.88;;;;;;;;;;5069648;28;20099;-79
2023/04/19 07:06:35;;;;;;;24.90;14.60;;;;;;;;;;5068012;28;20063;-81
2023/04/19 07:09:01;;;;;;;25.25;15.27;;;;;;;;;;5068805;28;20078;-81
2023/04/19 07:11:26;;;;;;;26.20;15.23;;;;;;;;;;5070781;28;20028;-81
2023/04/19 07:13:52;;;;;;;24.60;14.15;;;;;;;;;;5071690;28;20128;-81
2023/04/19 07:16:17;;;;;;;32.50;19.63;;;;;;;;;;5069476;28;20041;-81
2023/04/19 07:18:43;;;;;;;33.67;20.77;;;;;;;;;;5071254;28;20396;-80
2023/04/19 07:21:09;;;;;;;31.38;19.52;;;;;;;;;;5070118;28;20732;-81
2023/04/19 07:23:35;;;;;;;30.95;19.30;;;;;;;;;;5071254;28;20059;-80
2023/04/19 07:26:00;;;;;;;27.63;16.67;;;;;;;;;;5062554;28;20041;-81
2023/04/19 07:28:29;;;;;;;24.52;14.90;;;;;;;;;;5063495;28;20078;-81
2023/04/19 07:30:55;;;;;;;23.67;14.35;;;;;;;;;;5064175;28;20040;-80
2023/04/19 07:33:22;;;;;;;23.88;15.15;;;;;;;;;;5071072;28;20044;-81
2023/04/19 07:35:47;;;;;;;24.08;14.18;;;;;;;;;;5072239;28;20037;-81
2023/04/19 07:38:13;;;;;;;23.20;14.18;;;;;;;;;;5071828;28;20044;-80
2023/04/19 07:40:38;;;;;;;23.98;15.77;;;;;;;;;;5069227;28;20090;-80
2023/04/19 07:43:04;;;;;;;39.08;25.88;;;;;;;;;;5068800;28;20029;-82
2023/04/19 07:45:30;;;;;;;34.63;24.40;;;;;;;;;;5062247;28;20108;-80
2023/04/19 07:47:55;;;;;;;27.10;15.80;;;;;;;;;;5063087;28;20039;-81
2023/04/19 07:50:21;;;;;;;19.90;12.57;;;;;;;;;;5068257;28;20127;-81
2023/04/19 07:52:46;;;;;;;19.98;12.45;;;;;;;;;;5074122;28;20120;-81
2023/04/19 07:55:12;;;;;;;20.65;12.77;;;;;;;;;;5070943;28;20447;-80
2023/04/19 07:57:37;;;;;;;25.17;13.75;;;;;;;;;;5067950;28;20047;-80
2023/04/19 08:00:03;;;;;;;24.58;15.98;;;;;;;;;;5071304;28;20051;-81
2023/04/19 08:02:44;;;;;;;21.65;14.10;;;;;;;;;;5076321;28;20037;-79
2023/04/19 08:05:11;;;;;;;24.00;15.63;;;;;;;;;;5074819;28;20036;-80
2023/04/19 08:07:37;;;;;;;23.17;13.20;;;;;;;;;;5077337;28;20063;-81
2023/04/19 08:10:04;;;;;;;18.60;11.82;;;;;;;;;;5072543;28;20043;-79
2023/04/19 08:12:29;;;;;;;20.25;11.93;;;;;;;;;;5074652;28;20041;-80
2023/04/19 08:14:55;;;;;;;19.00;11.60;;;;;;;;;;5065871;28;20032;-81
2023/04/19 08:17:22;;;;;;;18.77;11.27;;;;;;;;;;5070814;28;20041;-79
2023/04/19 08:19:48;;;;;;;19.45;10.82;;;;;;;;;;5075095;28;20036;-79
2023/04/19 08:22:15;;;;;;;29.85;22.00;;;;;;;;;;5076106;28;20075;-80
2023/04/19 08:24:41;;;;;;;21.27;13.60;;;;;;;;;;5075471;28;20021;-80
2023/04/19 08:27:08;;;;;;;17.63;11.60;;;;;;;;;;5076121;28;20139;-81
2023/04/19 08:29:33;;;;;;;20.98;11.60;;;;;;;;;;5074757;28;20047;-81
2023/04/19 08:32:00;;;;;;;16.33;10.43;;;;;;;;;;5076266;28;20123;-81
2023/04/19 08:34:26;;;;;;;17.95;10.90;;;;;;;;;;5073466;28;20509;-81
2023/04/19 08:36:52;;;;;;;18.58;11.15;;;;;;;;;;5077002;28;20051;-81
2023/04/19 08:39:17;;;;;;;17.38;11.18;;;;;;;;;;5072628;28;20490;-79
2023/04/19 08:41:43;;;;;;;16.85;10.82;;;;;;;;;;5077318;28;20043;-81
2023/04/19 08:44:11;;;;;;;16.95;10.85;;;;;;;;;;5060511;28;20140;-81
2023/04/19 08:46:36;;;;;;;17.75;11.32;;;;;;;;;;5077148;28;20028;-82
2023/04/19 08:49:04;;;;;;;21.67;12.70;;;;;;;;;;5077513;23;20219;-80
2023/04/19 08:51:31;;;;;;;20.95;11.85;;;;;;;;;;5054081;28;20372;-80
2023/04/19 08:53:58;;;;;;;22.27;12.63;;;;;;;;;;5054299;28;20036;-80
2023/04/19 08:56:25;;;;;;;21.35;12.88;;;;;;;;;;5051621;28;20045;-82
2023/04/19 08:58:51;;;;;;;20.40;11.85;;;;;;;;;;5052071;28;20043;-80
2023/04/19 09:01:16;;;;;;;20.67;12.70;;;;;;;;;;5041741;28;20116;-82
2023/04/19 09:03:44;;;;;;;23.35;13.13;;;;;;;;;;5055471;28;20124;-81
2023/04/19 09:06:10;;;;;;;21.27;13.50;;;;;;;;;;5037928;28;20063;-81
2023/04/19 09:08:38;;;;;;;22.98;13.05;;;;;;;;;;5054485;28;20029;-81
2023/04/19 09:11:03;;;;;;;23.42;12.93;;;;;;;;;;5056266;28;20119;-80
2023/04/19 09:13:29;;;;;;;23.75;13.73;;;;;;;;;;5055622;28;20083;-81
2023/04/19 09:16:03;;;;;;;23.08;13.40;;;;;;;;;;5045444;28;20044;-81
2023/04/19 09:18:28;;;;;;;23.23;13.18;;;;;;;;;;5052622;28;20044;-81
2023/04/19 09:20:56;;;;;;;26.67;13.55;;;;;;;;;;5054958;28;20096;-81
2023/04/19 09:23:24;;;;;;;23.40;13.45;;;;;;;;;;5054563;28;20036;-80
2023/04/19 09:26:01;;;;;;;28.50;13.45;;;;;;;;;;5057971;28;20045;-81
2023/04/19 09:28:27;;;;;;;24.38;13.75;;;;;;;;;;5055039;28;20097;-81
2023/04/19 09:30:55;;;;;;;21.77;12.43;;;;;;;;;;5056221;28;20118;-81
2023/04/19 09:33:35;;;;;;;23.50;12.57;;;;;;;;;;5037056;28;20482;-80
2023/04/19 09:36:01;;;;;;;23.17;13.80;;;;;;;;;;5056099;28;20525;-81
2023/04/19 09:38:27;;;;;;;23.30;12.80;;;;;;;;;;5053488;28;20030;-81
2023/04/19 09:41:06;;;;;;;18.20;10.88;;;;;;;;;;5056349;28;20037;-80
2023/04/19 09:43:32;;;;;;;19.08;10.98;;;;;;;;;;5054233;28;20120;-81
2023/04/19 09:45:57;;;;;;;23.85;11.65;;;;;;;;;;5045036;28;20068;-81
2023/04/19 09:48:23;;;;;;;19.20;11.00;;;;;;;;;;5046508;28;20030;-81
2023/04/19 09:50:59;;;;;;;13.50;8.93;;;;;;;;;;5055975;28;20124;-81
2023/04/19 09:53:27;;;;;;;15.43;9.57;;;;;;;;;;5054510;28;20123;-81
2023/04/19 09:55:53;;;;;;;15.50;9.95;;;;;;;;;;5055984;28;20099;-81
2023/04/19 09:58:20;;;;;;;16.13;9.55;;;;;;;;;;5052324;28;20495;-81
2023/04/19 10:00:47;;;;;;;14.45;9.32;;;;;;;;;;5055794;28;20714;-81
2023/04/19 10:03:17;;;;;;;16.65;10.05;;;;;;;;;;5054852;28;20033;-81
2023/04/19 10:05:43;;;;;;;14.82;9.10;;;;;;;;;;5055584;28;20052;-80
2023/04/19 10:08:11;;;;;;;16.05;9.77;;;;;;;;;;5053642;28;20438;-81
2023/04/19 10:10:39;;;;;;;14.70;9.20;;;;;;;;;;5051299;28;20039;-81
2023/04/19 10:13:07;;;;;;;15.32;9.05;;;;;;;;;;5040137;28;20045;-81
2023/04/19 10:15:36;;;;;;;14.73;8.15;;;;;;;;;;5055486;28;20050;-81
2023/04/19 10:18:05;;;;;;;12.18;7.50;;;;;;;;;;5049305;28;20033;-81
2023/04/19 10:20:43;;;;;;;14.15;7.85;;;;;;;;;;5054657;28;20086;-80
2023/04/19 10:23:08;;;;;;;13.05;7.80;;;;;;;;;;5053505;28;20059;-81
2023/04/19 10:25:36;;;;;;;13.98;7.97;;;;;;;;;;5054714;28;20438;-81
2023/04/19 10:28:02;;;;;;;14.27;9.10;;;;;;;;;;5049039;28;20044;-80
2023/04/19 10:30:27;;;;;;;14.70;9.35;;;;;;;;;;5058717;28;20033;-81
2023/04/19 10:32:58;;;;;;;13.30;8.93;;;;;;;;;;5039769;28;20063;-81
2023/04/19 10:35:33;;;;;;;13.63;8.85;;;;;;;;;;5058836;28;20041;-81
2023/04/19 10:38:18;;;;;;;16.95;9.20;;;;;;;;;;5062782;28;20033;-81
2023/04/19 10:41:00;;;;;;;14.02;8.60;;;;;;;;;;5062505;28;20032;-82
2023/04/19 10:43:33;;;;;;;14.18;8.10;;;;;;;;;;5041921;28;20033;-81
2023/04/19 10:46:21;;;;;;;13.52;8.80;;;;;;;;;;5059409;28;20071;-81
2023/04/19 10:48:57;;;;;;;12.77;8.43;;;;;;;;;;5057041;28;20037;-80
2023/04/19 10:51:26;;;;;;;12.35;8.27;;;;;;;;;;5054373;28;20037;-81
2023/04/19 10:53:56;;;;;;;14.23;8.27;;;;;;;;;;5056508;28;20479;-82
2023/04/19 10:56:42;;;;;;;13.68;8.95;;;;;;;;;;5053851;28;20033;-82
2023/04/19 10:59:14;;;;;;;16.50;9.18;;;;;;;;;;5045991;28;20052;-83
2023/04/19 11:01:41;;;;;;;13.85;8.40;;;;;;;;;;5061324;28;20075;-83
2023/04/19 11:04:11;;;;;;;15.82;8.88;;;;;;;;;;5057611;28;20070;-82
2023/04/19 11:06:51;;;;;;;14.88;8.70;;;;;;;;;;5060388;28;20475;-82
2023/04/19 11:09:25;;;;;;;13.40;9.15;;;;;;;;;;5058034;28;20036;-82
2023/04/19 11:11:52;;;;;;;16.20;9.45;;;;;;;;;;5059105;28;20058;-82
2023/04/19 11:14:20;;;;;;;14.27;8.95;;;;;;;;;;5057956;28;20088;-82
2023/04/19 11:16:45;;;;;;;12.25;8.52;;;;;;;;;;5057734;28;20043;-82
2023/04/19 11:19:20;;;;;;;14.48;8.50;;;;;;;;;;5056536;28;20037;-82
2023/04/19 11:21:46;;;;;;;14.73;7.70;;;;;;;;;;5058718;28;20426;-82
2023/04/19 11:24:14;;;;;;;11.23;6.72;;;;;;;;;;5057078;28;20044;-82
2023/04/19 11:26:44;;;;;;;9.40;6.38;;;;;;;;;;5060680;28;20059;-82
2023/04/19 11:29:11;;;;;;;9.27;6.13;;;;;;;;;;5057879;28;20066;-82
2023/04/19 11:31:36;;;;;;;8.98;6.20;;;;;;;;;;5059823;28;20044;-82
2023/04/19 11:34:02;;;;;;;9.32;6.30;;;;;;;;;;5056462;28;20511;-82
2023/04/19 11:36:28;;;;;;;10.00;6.10;;;;;;;;;;5059812;28;20035;-82
2023/04/19 11:38:54;;;;;;;9.88;6.10;;;;;;;;;;5059597;28;20040;-82
2023/04/19 11:41:19;;;;;;;8.70;5.85;;;;;;;;;;5056867;28;20410;-82
2023/04/19 11:43:45;;;;;;;8.27;5.78;;;;;;;;;;5055375;28;20047;-82
2023/04/19 11:46:12;;;;;;;7.57;5.40;;;;;;;;;;5059525;28;20092;-82
2023/04/19 11:48:48;;;;;;;7.63;5.15;;;;;;;;;;5050777;28;20029;-82
2023/04/19 11:51:14;;;;;;;7.38;4.95;;;;;;;;;;5058156;28;20266;-82
2023/04/19 11:53:40;;;;;;;8.18;5.20;;;;;;;;;;5059265;28;20114;-81
2023/04/19 11:56:07;;;;;;;7.13;4.93;;;;;;;;;;5067126;28;20542;-81
2023/04/19 11:58:35;;;;;;;7.38;5.50;;;;;;;;;;5056774;28;20084;-82
2023/04/19 12:01:07;;;;;;;8.40;5.20;;;;;;;;;;5040335;28;20460;-82
2023/04/19 12:03:54;;;;;;;8.70;5.15;;;;;;;;;;5063122;28;20076;-80
2023/04/19 12:06:24;;;;;;;7.97;5.13;;;;;;;;;;5063025;28;20044;-81
2023/04/19 12:08:51;;;;;;;6.45;4.75;;;;;;;;;;5061916;28;20065;-82
2023/04/19 12:11:20;;;;;;;7.07;5.15;;;;;;;;;;5066384;28;20048;-82
2023/04/19 12:13:46;;;;;;;9.25;5.88;;;;;;;;;;5063804;28;20036;-82
2023/04/19 12:16:13;;;;;;;8.45;6.10;;;;;;;;;;5062219;28;20041;-82
2023/04/19 12:18:47;;;;;;;9.23;6.07;;;;;;;;;;5053174;28;20033;-82
2023/04/19 12:21:26;;;;;;;9.25;6.18;;;;;;;;;;5060735;28;20037;-82
2023/04/19 12:23:56;;;;;;;8.55;5.72;;;;;;;;;;5062438;28;20059;-82
2023/04/19 12:26:22;;;;;;;8.45;5.97;;;;;;;;;;5062558;28;20044;-82
2023/04/19 12:28:47;;;;;;;7.45;5.20;;;;;;;;;;5059538;28;20068;-82
2023/04/19 12:31:13;;;;;;;9.30;5.82;;;;;;;;;;5052633;28;20030;-82
2023/04/19 12:33:39;;;;;;;10.70;6.35;;;;;;;;;;5062460;28;20029;-86
2023/04/19 12:36:05;;;;;;;9.45;6.40;;;;;;;;;;5063104;28;20033;-82
2023/04/19 12:38:30;;;;;;;12.57;8.23;;;;;;;;;;5064133;28;20073;-82
2023/04/19 12:40:56;;;;;;;13.60;9.13;;;;;;;;;;5060009;28;20041;-82
2023/04/19 12:43:21;;;;;;;14.60;8.65;;;;;;;;;;5063845;28;20041;-82
2023/04/19 12:45:46;;;;;;;10.73;7.22;;;;;;;;;;5061632;28;20033;-82
2023/04/19 12:48:12;;;;;;;13.30;7.60;;;;;;;;;;5056054;28;20075;-82
2023/04/19 12:50:37;;;;;;;10.85;6.35;;;;;;;;;;5059580;28;20040;-82
2023/04/19 12:53:03;;;;;;;8.90;5.85;;;;;;;;;;5060712;28;20083;-82
2023/04/19 12:55:28;;;;;;;10.13;5.85;;;;;;;;;;5054803;28;20446;-81
2023/04/19 12:57:54;;;;;;;11.70;5.57;;;;;;;;;;5056828;28;20037;-82
2023/04/19 13:00:20;;;;;;;8.60;4.97;;;;;;;;;;5056536;28;20056;-82
2023/04/19 13:02:47;;;;;;;8.90;5.40;;;;;;;;;;5054561;28;20037;-82
2023/04/19 13:05:12;;;;;;;8.95;5.53;;;;;;;;;;5056661;28;20510;-82
2023/04/19 13:07:38;;;;;;;10.35;6.22;;;;;;;;;;5053430;28;20111;-82
2023/04/19 13:10:03;;;;;;;12.57;6.43;;;;;;;;;;5057216;28;20049;-81
2023/04/19 13:12:29;;;;;;;8.10;5.25;;;;;;;;;;5058302;28;20032;-81
2023/04/19 13:14:55;;;;;;;9.85;5.80;;;;;;;;;;5061950;28;20032;-81
2023/04/19 13:17:21;;;;;;;9.35;5.60;;;;;;;;;;5061244;28;20071;-81
2023/04/19 13:19:47;;;;;;;11.15;5.90;;;;;;;;;;5064282;28;20049;-83
2023/04/19 13:22:12;;;;;;;9.40;5.93;;;;;;;;;;5060753;28;20033;-83
2023/04/19 13:24:37;;;;;;;10.45;6.43;;;;;;;;;;5064002;28;20032;-82
2023/04/19 13:27:03;;;;;;;11.30;6.53;;;;;;;;;;5064306;28;20033;-81
2023/04/19 13:29:29;;;;;;;10.73;7.53;;;;;;;;;;5064994;28;20029;-82
2023/04/19 13:31:54;;;;;;;9.43;5.93;;;;;;;;;;5063783;28;20106;-83
2023/04/19 13:34:20;;;;;;;9.18;5.88;;;;;;;;;;5064068;28;20047;-83
2023/04/19 13:36:46;;;;;;;9.43;5.10;;;;;;;;;;5060849;28;20097;-82
2023/04/19 13:39:11;;;;;;;7.25;4.95;;;;;;;;;;5047721;28;20065;-81
2023/04/19 13:41:37;;;;;;;13.15;7.22;;;;;;;;;;5058068;28;20025;-84
2023/04/19 13:44:02;;;;;;;8.38;4.90;;;;;;;;;;5061775;28;20845;-86
2023/04/19 13:46:28;;;;;;;6.82;4.85;;;;;;;;;;5061454;28;20117;-85
2023/04/19 13:48:53;;;;;;;7.05;4.53;;;;;;;;;;5063854;28;20428;-85
2023/04/19 13:51:19;;;;;;;7.32;4.90;;;;;;;;;;5062789;28;20048;-84
2023/04/19 13:53:44;;;;;;;6.20;4.30;;;;;;;;;;5060950;28;20044;-84
2023/04/19 13:56:10;;;;;;;6.70;4.00;;;;;;;;;;5062858;28;20045;-84
2023/04/19 13:58:36;;;;;;;4.32;3.10;;;;;;;;;;5059789;28;20036;-86
2023/04/19 14:01:02;;;;;;;7.85;4.57;;;;;;;;;;5064548;28;20048;-86
2023/04/19 14:03:28;;;;;;;6.43;4.28;;;;;;;;;;5066035;28;20037;-85
2023/04/19 14:05:53;;;;;;;5.95;3.85;;;;;;;;;;5065385;28;20410;-85
2023/04/19 14:08:19;;;;;;;4.28;3.20;;;;;;;;;;5061259;28;20021;-88
2023/04/19 14:10:45;;;;;;;5.50;3.22;;;;;;;;;;5062714;28;20053;-84
2023/04/19 14:13:11;;;;;;;5.43;3.47;;;;;;;;;;5062742;28;20045;-85
2023/04/19 14:15:36;;;;;;;5.88;4.00;;;;;;;;;;5059454;28;20024;-85
2023/04/19 14:18:02;;;;;;;5.82;3.35;;;;;;;;;;5064781;28;20036;-83
2023/04/19 14:20:27;;;;;;;4.68;3.33;;;;;;;;;;5059867;28;20052;-85
2023/04/19 14:22:54;;;;;;;3.35;2.50;;;;;;;;;;5060353;28;20029;-83
2023/04/19 14:25:20;;;;;;;5.43;2.70;;;;;;;;;;5063699;28;20105;-86
2023/04/19 14:27:46;;;;;;;5.32;3.60;;;;;;;;;;5060800;28;20037;-82
2023/04/19 14:30:11;;;;;;;6.68;3.42;;;;;;;;;;5061732;28;20037;-86
2023/04/19 14:32:37;;;;;;;5.25;3.38;;;;;;;;;;5064071;28;20094;-88